Ligon, Kentucky
Current Conditions -  °F | °C
As of 1:15 PM on Friday 31 Oct 2014 (Local Time) from KPBX Reporting Station
Light Rain Light Rain  
Wind Chill: 40°   Ceiling: 2800
Heat Index: 44°   Visibility: 10mi
Dew Point: 40°   Wind: 6mph
Humidity: 87%   Direction: 310°NW
Pressure: 29.91"   Gusts: NA
Location:  37.3721°N, 82.6871°W
Report Text: KPBX 311715Z AUTO 31005KT 10SM -RA SCT010 BKN028 OVC032 07/05 A2991 RMK AO2 T00650045
Loading
Personal Weather Stations






























Interactive Weather Map
Tropical Storm Tracking
New forecast layout! Learn more

10-Day Weather Forecast

Advertisements
Track Severe Weather on mobile